createdAt,value
2022-09-04T00:05:13.172Z,99796.66
2022-09-04T00:10:31.705Z,99793.28
2022-09-04T00:15:39.659Z,99799.31
2022-09-04T00:20:56.912Z,99798.84
2022-09-04T00:26:11.514Z,99796.94
2022-09-04T00:31:22.365Z,99803.81
2022-09-04T00:36:28.073Z,99796.38
2022-09-04T00:41:42.314Z,99795.66
2022-09-04T00:47:05.289Z,99809.97
2022-09-04T00:52:36.999Z,99799.94
2022-09-04T00:58:03.594Z,99812.03
2022-09-04T01:03:20.674Z,99806.16
2022-09-04T01:08:40.771Z,99813.31
2022-09-04T01:14:06.265Z,99825.66
2022-09-04T01:19:32.250Z,99827.34
2022-09-04T01:25:05.891Z,99822.25
2022-09-04T01:30:12.321Z,99832.41
2022-09-04T01:35:20.128Z,99833.38
2022-09-04T01:40:35.502Z,99834.81
2022-09-04T01:46:05.154Z,99832.34
2022-09-04T01:51:18.813Z,99834.00
2022-09-04T01:56:30.296Z,99838.31
2022-09-04T02:02:06.803Z,99836.78
2022-09-04T02:07:20.656Z,99835.94
2022-09-04T02:13:30.016Z,99840.75
2022-09-04T02:18:45.609Z,99838.00
2022-09-04T02:23:57.974Z,99834.16
2022-09-04T02:29:28.730Z,99847.00
2022-09-04T02:34:48.068Z,99855.56
2022-09-04T02:40:12.029Z,99857.06
2022-09-04T02:45:23.081Z,99865.38
2022-09-04T02:51:02.292Z,99871.34
2022-09-04T02:56:16.090Z,99863.09
2022-09-04T03:01:35.136Z,99859.78
2022-09-04T03:06:59.602Z,99863.50
2022-09-04T03:12:16.040Z,99859.00
2022-09-04T03:17:33.184Z,99871.31
2022-09-04T03:22:43.910Z,99865.16
2022-09-04T03:27:46.479Z,99868.63
2022-09-04T03:33:08.402Z,99879.81
2022-09-04T03:38:23.156Z,99875.69
2022-09-04T03:43:56.916Z,99891.06
2022-09-04T03:49:11.961Z,99886.66
2022-09-04T03:54:38.356Z,99890.63
2022-09-04T04:00:09.720Z,99896.19
2022-09-04T04:05:40.575Z,99899.09
2022-09-04T04:11:05.380Z,99901.19
2022-09-04T04:16:55.787Z,99904.72
2022-09-04T04:22:24.186Z,99901.25
2022-09-04T04:27:46.028Z,99904.00
2022-09-04T04:33:02.459Z,99914.25
2022-09-04T04:38:19.426Z,99912.47
2022-09-04T04:43:54.945Z,99918.66
2022-09-04T04:49:04.497Z,99926.06
2022-09-04T04:54:28.067Z,99931.78
2022-09-04T04:59:51.944Z,99949.97
2022-09-04T05:05:05.182Z,99943.66
2022-09-04T05:10:15.499Z,99943.81
2022-09-04T05:15:29.286Z,99953.84
2022-09-04T05:20:48.114Z,99957.34
2022-09-04T05:26:00.444Z,99970.75
2022-09-04T05:31:09.539Z,99967.41
2022-09-04T05:36:32.477Z,99971.16
2022-09-04T05:41:50.879Z,99976.75
2022-09-04T05:47:17.362Z,99982.22
2022-09-04T05:52:29.584Z,99990.69
2022-09-04T05:58:38.456Z,100001.69
2022-09-04T06:03:52.769Z,100001.81
2022-09-04T06:08:54.367Z,100012.38
2022-09-04T06:14:10.022Z,100018.59
2022-09-04T06:19:36.542Z,100017.88
2022-09-04T06:25:33.295Z,100018.91
2022-09-04T06:31:09.983Z,100038.53
2022-09-04T06:36:21.770Z,100041.69
2022-09-04T06:41:44.083Z,100047.22
2022-09-04T06:47:02.874Z,100049.66
2022-09-04T06:52:34.141Z,100059.22
2022-09-04T06:58:13.972Z,100054.41
2022-09-04T07:03:34.163Z,100062.69
2022-09-04T07:09:08.564Z,100071.69
2022-09-04T07:14:35.490Z,100069.28
2022-09-04T07:19:46.130Z,100068.72
2022-09-04T07:25:08.639Z,100062.25
2022-09-04T07:30:13.620Z,100067.13
2022-09-04T07:35:18.018Z,100066.28
2022-09-04T07:40:27.978Z,100081.91
2022-09-04T07:45:47.448Z,100076.97
2022-09-04T07:51:10.811Z,100086.44
2022-09-04T07:56:21.216Z,100072.13
2022-09-04T08:01:42.614Z,100098.13
2022-09-04T08:07:02.784Z,100097.69
2022-09-04T08:12:36.903Z,100096.63
2022-09-04T08:17:57.860Z,100096.03
2022-09-04T08:23:04.279Z,100101.91
2022-09-04T08:28:42.988Z,100118.00
2022-09-04T08:33:57.610Z,100121.72
2022-09-04T08:39:22.262Z,100120.03
2022-09-04T08:44:38.872Z,100121.41
2022-09-04T08:50:01.873Z,100115.41
2022-09-04T08:55:24.511Z,100129.00
2022-09-04T09:00:42.688Z,100114.69
2022-09-04T09:05:47.335Z,100118.06
2022-09-04T09:10:48.940Z,100124.94
2022-09-04T09:16:22.429Z,100130.00
2022-09-04T09:21:49.467Z,100111.78
2022-09-04T09:27:08.631Z,100114.88
2022-09-04T09:33:05.747Z,100115.94
2022-09-04T09:38:52.053Z,100100.00
2022-09-04T09:44:27.799Z,100105.38
2022-09-04T09:49:47.981Z,100107.81
2022-09-04T09:55:03.415Z,100100.28
2022-09-04T10:00:07.357Z,100099.16
2022-09-04T10:05:48.994Z,100083.81
2022-09-04T10:11:23.766Z,100083.72
2022-09-04T10:16:33.311Z,100072.03
2022-09-04T10:22:07.821Z,100064.84
2022-09-04T10:27:21.835Z,100067.41
2022-09-04T10:32:47.409Z,100075.78
2022-09-04T10:38:27.505Z,100075.56
2022-09-04T10:44:16.549Z,100085.34
2022-09-04T10:49:50.071Z,100073.16
2022-09-04T10:55:06.864Z,100082.56
2022-09-04T11:00:22.940Z,100082.69
2022-09-04T11:05:37.911Z,100084.22
2022-09-04T11:10:54.312Z,100075.63
2022-09-04T11:16:20.802Z,100087.50
2022-09-04T11:22:00.078Z,100094.53
2022-09-04T11:27:31.282Z,100093.66
2022-09-04T11:32:52.803Z,100089.50
2022-09-04T11:38:06.606Z,100089.78
2022-09-04T11:43:30.456Z,100088.91
2022-09-04T11:48:51.200Z,100095.03
2022-09-04T11:54:08.353Z,100094.28
2022-09-04T11:59:33.021Z,100099.66
2022-09-04T12:05:01.202Z,100105.13
2022-09-04T12:10:28.480Z,100109.72
2022-09-04T12:15:45.155Z,100108.28
2022-09-04T12:21:12.598Z,100102.00
2022-09-04T12:26:18.036Z,100091.97
2022-09-04T12:31:38.932Z,100091.22
2022-09-04T12:36:41.256Z,100087.88
2022-09-04T12:41:54.967Z,100089.88
2022-09-04T12:47:02.374Z,100086.31
2022-09-04T12:52:23.498Z,100089.91
2022-09-04T12:57:48.395Z,100084.53
2022-09-04T13:03:13.119Z,100088.59
2022-09-04T13:08:53.422Z,100093.53
2022-09-04T13:14:42.824Z,100089.16
2022-09-04T13:19:55.756Z,100074.13
2022-09-04T13:25:11.990Z,100081.16
2022-09-04T13:30:25.525Z,100084.28
2022-09-04T13:35:41.489Z,100092.78
2022-09-04T13:41:00.242Z,100082.78
2022-09-04T13:46:08.064Z,100090.34
2022-09-04T13:51:17.739Z,100093.38
2022-09-04T13:56:28.431Z,100090.81
2022-09-04T14:01:33.319Z,100086.28
2022-09-04T14:06:37.027Z,100091.78
2022-09-04T14:12:00.963Z,100095.84
2022-09-04T14:17:07.237Z,100096.25
2022-09-04T14:22:33.811Z,100088.22
2022-09-04T14:27:42.541Z,100082.31
2022-09-04T14:32:58.061Z,100090.63
2022-09-04T14:38:21.726Z,100098.06
2022-09-04T14:44:03.919Z,100092.91
2022-09-04T14:49:10.111Z,100094.84
2022-09-04T14:54:36.361Z,100106.88
2022-09-04T14:59:44.309Z,100110.88
2022-09-04T15:04:51.790Z,100106.16
2022-09-04T15:09:54.797Z,100120.88
2022-09-04T15:15:15.016Z,100119.16
2022-09-04T15:20:26.228Z,100111.59
2022-09-04T15:25:59.273Z,100111.81
2022-09-04T15:31:28.562Z,100119.00
2022-09-04T15:36:31.387Z,100127.38
2022-09-04T15:41:34.195Z,100120.16
2022-09-04T15:46:38.873Z,100132.84
2022-09-04T15:51:52.104Z,100129.59
2022-09-04T15:56:53.886Z,100134.19
2022-09-04T16:01:55.560Z,100133.72
2022-09-04T16:07:19.620Z,100137.06
2022-09-04T16:12:30.781Z,100140.28
2022-09-04T16:17:40.227Z,100147.66
2022-09-04T16:23:00.705Z,100145.47
2022-09-04T16:28:15.469Z,100147.50
2022-09-04T16:33:30.687Z,100144.19
2022-09-04T16:38:47.467Z,100146.97
2022-09-04T16:44:14.670Z,100145.78
2022-09-04T16:49:47.247Z,100154.63
2022-09-04T16:54:55.319Z,100163.44
2022-09-04T17:00:08.030Z,100170.06
2022-09-04T17:05:28.158Z,100179.00
2022-09-04T17:10:53.933Z,100182.66
2022-09-04T17:16:04.988Z,100183.97
2022-09-04T17:23:57.682Z,100180.94
2022-09-04T17:36:21.957Z,100192.03
2022-09-04T17:40:54.605Z,100193.00
2022-09-04T17:44:10.481Z,100204.13
2022-09-04T17:49:17.719Z,100205.91
2022-09-04T17:54:20.682Z,100219.97
2022-09-04T17:59:29.406Z,100223.94
2022-09-04T18:04:40.121Z,100227.19
2022-09-04T18:10:01.250Z,100233.13
2022-09-04T18:15:34.294Z,100242.38
2022-09-04T18:20:51.599Z,100247.28
2022-09-04T18:26:09.878Z,100252.34
2022-09-04T18:37:11.981Z,100255.56
2022-09-04T18:37:24.927Z,100262.50
2022-09-04T18:50:23.816Z,100265.31
2022-09-04T18:50:29.198Z,100274.50
2022-09-04T18:53:20.944Z,100284.84
2022-09-04T18:58:41.778Z,100277.59
2022-09-04T19:03:56.036Z,100276.00
2022-09-04T19:09:06.788Z,100288.28
2022-09-04T19:14:15.513Z,100289.59
2022-09-04T19:19:38.037Z,100288.94
2022-09-04T19:25:18.708Z,100293.97
2022-09-04T19:30:23.851Z,100296.41
2022-09-04T19:36:05.841Z,100296.22
2022-09-04T19:46:00.640Z,100299.38
2022-09-04T19:46:58.496Z,100302.09
2022-09-04T19:53:24.398Z,100305.44
2022-09-04T19:57:33.970Z,100309.22
2022-09-04T20:02:52.655Z,100312.75
2022-09-04T20:07:58.490Z,100320.50
2022-09-04T20:13:18.502Z,100326.13
2022-09-04T20:18:28.699Z,100325.47
2022-09-04T20:23:51.098Z,100334.28
2022-09-04T20:29:18.223Z,100336.31
2022-09-04T20:34:48.541Z,100345.41
2022-09-04T20:39:59.441Z,100342.47
2022-09-04T20:48:05.028Z,100344.56
2022-09-04T20:52:56.431Z,100346.78
2022-09-04T20:57:50.964Z,100342.97
2022-09-04T21:03:21.878Z,100346.03
2022-09-04T21:08:15.523Z,100346.22
2022-09-04T21:13:45.265Z,100364.13
2022-09-04T21:19:27.565Z,100356.50
2022-09-04T21:24:50.362Z,100372.66
2022-09-04T21:30:14.712Z,100367.63
2022-09-04T21:35:25.133Z,100377.31
2022-09-04T21:40:52.771Z,100367.75
2022-09-04T21:46:33.102Z,100374.00
2022-09-04T21:51:52.987Z,100380.47
2022-09-04T22:02:26.010Z,100383.63
2022-09-04T22:03:02.010Z,100381.25
2022-09-04T22:13:24.717Z,100391.69
2022-09-04T22:13:59.212Z,100392.47
2022-09-04T22:19:16.833Z,100385.19
2022-09-04T22:24:50.906Z,100391.00
2022-09-04T22:30:03.858Z,100390.41
2022-09-04T22:35:42.431Z,100392.03
2022-09-04T22:41:25.516Z,100395.41
2022-09-04T22:46:33.042Z,100387.69
2022-09-04T22:51:50.404Z,100385.75
2022-09-04T22:57:09.200Z,100384.06
2022-09-04T23:02:55.447Z,100385.09
2022-09-04T23:13:46.304Z,100384.34
2022-09-04T23:13:53.899Z,100389.75
2022-09-04T23:26:31.252Z,100391.25
2022-09-04T23:26:46.033Z,100398.63
2022-09-04T23:31:09.233Z,100391.63
2022-09-04T23:36:37.629Z,100391.63
2022-09-04T23:41:58.975Z,100395.53
2022-09-04T23:47:48.371Z,100392.41
2022-09-04T23:53:22.204Z,100403.53
2022-09-04T23:58:54.583Z,100401.50
